Llagostera, Spain
Current Conditions -  °F | °C
As of 7:30 AM on Friday 19 Dec 2014 (Local Time) from LEGE Reporting Station
Light Fog Light Fog  
Wind Chill: 41°   Ceiling: Unl
Heat Index: 41°   Visibility: 6mi
Dew Point: 41°   Wind: 0mph
Humidity: 100%   Direction: NA
Pressure: 30.3"   Gusts: NA
Location:  41.83°N, 2.89°E
Report Text: LEGE 190630Z 00000KT 9000 BCFG NSC 05/05 Q1026
Loading
Personal Weather Stations






























Interactive Weather Map New forecast layout! Learn more

10-Day Weather Forecast

Advertisements
Track Severe Weather on mobile